Satellite Actuals Today Synoptics Week ahead

Weather information and forecast links for Shobdon, the Midlands, Western England and Wales

Today:

BBC Leominster local forecast and regional video.

Met Office general forecast

Met Office F214 and F215 charts (as displayed in the Aero Club each day) You have to register to use this site, but it is free.

Links to pretty much everything you need Rackham's home.

Satellite Met Office or Sat24 - visual for lower cloud, infrared for upper cloud.

XCWeather Wind map and local forecast

Will it Rain Today?

TAFs and METARs EGBB:Birmingham EGFF:Cardiff EGVN:Brize Norton

Local forecasts Met Office  MetCheck  Weatherweb

RASP Ridge wind forecast

Dewpoint+Temperature tephigram UK Soundings or Weather online


Other Club sites:Dunstable  Lasham  Nympsfield Long Mynd

Shobdon Hangar web-cam facing Southwest

Latest TAFs

Manchester

2018/10/18 03:08
TAF 
      AMD EGCC 180302Z 1803/1906 32004KT 9999 FEW030 
      TEMPO 1803/1811 4000 BR PROB30 1803/1808 0300 FG OVC001

Birmingham

2018/10/17 18:09
TAF EGBB 171652Z 1718/1818 01007KT 9999 FEW025 PROB30 1804/1809 8000 BKN014

Brize Norton

2018/10/18 06:33
TAF EGVN 180423Z 1806/1906 04008KT 9999 FEW025 PROB30 1806/1809 BKN007 PROB30 
      TEMPO 1809/1812 SCT018 PROB30 1904/1906 7000 HZ

Cardiff

2018/10/17 21:02
TAF 
      AMD EGFF 172158Z 1721/1818 05010KT 9999 FEW045 PROB30 
      TEMPO 1805/1810 BKN014

Select station


Decode?
  - Copy the TAF (from the station code) and paste it into the METARs/TAFs box here.

Soaring data for today

Data provided by RASP

Today's Forecast for Shobdon (52.24207,-2.87443)
Stars rating
Wind direction
Wind speed
Cumrasp-uk.ukulus potential
Surface Sunshine
Surface Temperature
MSL Pressuree
Rainfall